sensor_id;sensor_type;location;lat;lon;timestamp;P1;durP1;ratioP1;P2;durP2;ratioP2
24147;SDS011;12309;51.450;-2.624;2023-06-01T00:00:32;6.15;;;4.85;;
24147;SDS011;12309;51.450;-2.624;2023-06-01T00:02:58;8.98;;;5.00;;
24147;SDS011;12309;51.450;-2.624;2023-06-01T00:05:24;7.32;;;4.60;;
24147;SDS011;12309;51.450;-2.624;2023-06-01T00:07:49;10.57;;;4.93;;
24147;SDS011;12309;51.450;-2.624;2023-06-01T00:10:15;11.02;;;4.50;;
24147;SDS011;12309;51.450;-2.624;2023-06-01T00:12:41;6.45;;;4.35;;
24147;SDS011;12309;51.450;-2.624;2023-06-01T00:15:08;7.85;;;5.00;;
24147;SDS011;12309;51.450;-2.624;2023-06-01T00:17:34;7.68;;;4.47;;
24147;SDS011;12309;51.450;-2.624;2023-06-01T00:20:00;7.25;;;4.57;;
24147;SDS011;12309;51.450;-2.624;2023-06-01T00:22:26;7.50;;;4.68;;
24147;SDS011;12309;51.450;-2.624;2023-06-01T00:24:54;6.40;;;4.13;;
24147;SDS011;12309;51.450;-2.624;2023-06-01T00:27:20;12.52;;;4.65;;
24147;SDS011;12309;51.450;-2.624;2023-06-01T00:29:46;6.70;;;4.47;;
24147;SDS011;12309;51.450;-2.624;2023-06-01T00:32:11;5.82;;;4.38;;
24147;SDS011;12309;51.450;-2.624;2023-06-01T00:34:37;8.98;;;4.50;;
24147;SDS011;12309;51.450;-2.624;2023-06-01T00:37:03;6.38;;;4.20;;
24147;SDS011;12309;51.450;-2.624;2023-06-01T00:39:29;6.85;;;4.75;;
24147;SDS011;12309;51.450;-2.624;2023-06-01T00:41:54;6.93;;;4.32;;
24147;SDS011;12309;51.450;-2.624;2023-06-01T00:44:20;5.97;;;4.05;;
24147;SDS011;12309;51.450;-2.624;2023-06-01T00:46:45;8.18;;;4.43;;
24147;SDS011;12309;51.450;-2.624;2023-06-01T00:49:11;8.57;;;4.68;;
24147;SDS011;12309;51.450;-2.624;2023-06-01T00:51:37;7.63;;;5.10;;
24147;SDS011;12309;51.450;-2.624;2023-06-01T00:54:03;6.47;;;4.70;;
24147;SDS011;12309;51.450;-2.624;2023-06-01T00:56:28;7.40;;;4.57;;
24147;SDS011;12309;51.450;-2.624;2023-06-01T00:58:56;8.18;;;4.65;;
24147;SDS011;12309;51.450;-2.624;2023-06-01T01:01:22;6.40;;;3.97;;
24147;SDS011;12309;51.450;-2.624;2023-06-01T01:03:49;6.82;;;4.43;;
24147;SDS011;12309;51.450;-2.624;2023-06-01T01:09:53;7.93;;;4.32;;
24147;SDS011;12309;51.450;-2.624;2023-06-01T01:12:31;5.70;;;4.38;;
24147;SDS011;12309;51.450;-2.624;2023-06-01T01:15:11;11.20;;;4.72;;
24147;SDS011;12309;51.450;-2.624;2023-06-01T01:17:43;9.40;;;4.50;;
24147;SDS011;12309;51.450;-2.624;2023-06-01T01:20:12;7.03;;;4.68;;
24147;SDS011;12309;51.450;-2.624;2023-06-01T01:31:12;6.82;;;4.18;;
24147;SDS011;12309;51.450;-2.624;2023-06-01T01:33:41;8.57;;;3.55;;
24147;SDS011;12309;51.450;-2.624;2023-06-01T01:36:08;5.63;;;4.00;;
24147;SDS011;12309;51.450;-2.624;2023-06-01T01:38:35;5.30;;;3.97;;
24147;SDS011;12309;51.450;-2.624;2023-06-01T01:41:01;6.57;;;3.85;;
24147;SDS011;12309;51.450;-2.624;2023-06-01T01:43:27;5.73;;;4.27;;
24147;SDS011;12309;51.450;-2.624;2023-06-01T01:51:35;6.55;;;3.22;;
24147;SDS011;12309;51.450;-2.624;2023-06-01T01:54:11;4.97;;;3.17;;
24147;SDS011;12309;51.450;-2.624;2023-06-01T01:56:38;5.60;;;3.40;;
24147;SDS011;12309;51.450;-2.624;2023-06-01T01:59:04;6.40;;;3.43;;
24147;SDS011;12309;51.450;-2.624;2023-06-01T02:01:31;5.43;;;3.47;;
24147;SDS011;12309;51.450;-2.624;2023-06-01T02:03:59;4.97;;;3.23;;
24147;SDS011;12309;51.450;-2.624;2023-06-01T02:06:28;4.97;;;3.57;;
24147;SDS011;12309;51.450;-2.624;2023-06-01T02:08:53;5.63;;;3.10;;
24147;SDS011;12309;51.450;-2.624;2023-06-01T02:11:19;4.53;;;3.47;;
24147;SDS011;12309;51.450;-2.624;2023-06-01T02:13:45;5.93;;;3.65;;
24147;SDS011;12309;51.450;-2.624;2023-06-01T02:16:11;5.87;;;3.50;;
24147;SDS011;12309;51.450;-2.624;2023-06-01T02:18:37;8.07;;;3.63;;
24147;SDS011;12309;51.450;-2.624;2023-06-01T02:21:04;5.97;;;3.30;;
24147;SDS011;12309;51.450;-2.624;2023-06-01T02:23:30;5.30;;;3.27;;
24147;SDS011;12309;51.450;-2.624;2023-06-01T02:25:56;5.63;;;3.70;;
24147;SDS011;12309;51.450;-2.624;2023-06-01T02:28:21;4.20;;;3.20;;
24147;SDS011;12309;51.450;-2.624;2023-06-01T02:30:47;5.80;;;3.00;;
24147;SDS011;12309;51.450;-2.624;2023-06-01T02:33:12;6.03;;;3.90;;
24147;SDS011;12309;51.450;-2.624;2023-06-01T02:35:38;4.43;;;3.30;;
24147;SDS011;12309;51.450;-2.624;2023-06-01T02:38:04;5.03;;;3.50;;
24147;SDS011;12309;51.450;-2.624;2023-06-01T02:40:30;5.33;;;3.63;;
24147;SDS011;12309;51.450;-2.624;2023-06-01T02:42:55;7.30;;;3.63;;
24147;SDS011;12309;51.450;-2.624;2023-06-01T02:45:21;5.43;;;3.70;;
24147;SDS011;12309;51.450;-2.624;2023-06-01T02:47:47;8.80;;;4.43;;
24147;SDS011;12309;51.450;-2.624;2023-06-01T02:50:12;6.30;;;3.67;;
24147;SDS011;12309;51.450;-2.624;2023-06-01T02:52:38;5.80;;;3.60;;
24147;SDS011;12309;51.450;-2.624;2023-06-01T02:55:04;4.93;;;3.50;;
24147;SDS011;12309;51.450;-2.624;2023-06-01T02:57:31;6.55;;;3.45;;
24147;SDS011;12309;51.450;-2.624;2023-06-01T02:59:56;6.85;;;4.20;;
24147;SDS011;12309;51.450;-2.624;2023-06-01T03:02:22;5.40;;;3.80;;
24147;SDS011;12309;51.450;-2.624;2023-06-01T03:04:47;5.88;;;3.58;;
24147;SDS011;12309;51.450;-2.624;2023-06-01T03:07:13;6.07;;;3.28;;
24147;SDS011;12309;51.450;-2.624;2023-06-01T03:09:39;5.90;;;3.33;;
24147;SDS011;12309;51.450;-2.624;2023-06-01T03:12:05;7.37;;;3.30;;
24147;SDS011;12309;51.450;-2.624;2023-06-01T03:14:31;4.25;;;3.22;;
24147;SDS011;12309;51.450;-2.624;2023-06-01T03:16:57;6.03;;;3.45;;
24147;SDS011;12309;51.450;-2.624;2023-06-01T03:19:22;4.22;;;2.97;;
24147;SDS011;12309;51.450;-2.624;2023-06-01T03:21:48;5.17;;;3.60;;
24147;SDS011;12309;51.450;-2.624;2023-06-01T03:24:14;5.07;;;3.40;;
24147;SDS011;12309;51.450;-2.624;2023-06-01T03:26:39;3.93;;;3.10;;
24147;SDS011;12309;51.450;-2.624;2023-06-01T03:29:05;5.93;;;3.47;;
24147;SDS011;12309;51.450;-2.624;2023-06-01T03:31:31;5.43;;;3.47;;
24147;SDS011;12309;51.450;-2.624;2023-06-01T03:33:59;6.10;;;3.20;;
24147;SDS011;12309;51.450;-2.624;2023-06-01T03:36:25;5.72;;;2.83;;
24147;SDS011;12309;51.450;-2.624;2023-06-01T03:38:51;5.13;;;3.47;;
24147;SDS011;12309;51.450;-2.624;2023-06-01T03:41:16;7.82;;;3.63;;
24147;SDS011;12309;51.450;-2.624;2023-06-01T03:43:42;6.43;;;3.23;;
24147;SDS011;12309;51.450;-2.624;2023-06-01T03:46:07;5.07;;;3.63;;
24147;SDS011;12309;51.450;-2.624;2023-06-01T03:48:34;6.72;;;3.53;;
24147;SDS011;12309;51.450;-2.624;2023-06-01T03:50:59;7.63;;;3.20;;
24147;SDS011;12309;51.450;-2.624;2023-06-01T03:53:25;5.73;;;3.30;;
24147;SDS011;12309;51.450;-2.624;2023-06-01T03:55:51;5.82;;;3.25;;
24147;SDS011;12309;51.450;-2.624;2023-06-01T03:58:17;11.52;;;3.42;;
24147;SDS011;12309;51.450;-2.624;2023-06-01T04:00:44;5.57;;;3.40;;
24147;SDS011;12309;51.450;-2.624;2023-06-01T04:03:10;5.53;;;3.50;;
24147;SDS011;12309;51.450;-2.624;2023-06-01T04:05:36;6.50;;;4.17;;
24147;SDS011;12309;51.450;-2.624;2023-06-01T04:08:02;6.05;;;3.72;;
24147;SDS011;12309;51.450;-2.624;2023-06-01T04:10:27;7.33;;;4.20;;
24147;SDS011;12309;51.450;-2.624;2023-06-01T04:12:53;7.47;;;4.33;;
24147;SDS011;12309;51.450;-2.624;2023-06-01T04:15:19;6.57;;;4.27;;
24147;SDS011;12309;51.450;-2.624;2023-06-01T04:17:45;8.07;;;4.70;;
24147;SDS011;12309;51.450;-2.624;2023-06-01T04:20:15;8.73;;;4.40;;
24147;SDS011;12309;51.450;-2.624;2023-06-01T04:22:41;6.90;;;4.90;;
24147;SDS011;12309;51.450;-2.624;2023-06-01T04:25:08;6.37;;;4.40;;
24147;SDS011;12309;51.450;-2.624;2023-06-01T04:27:36;10.67;;;4.57;;
24147;SDS011;12309;51.450;-2.624;2023-06-01T04:30:03;7.83;;;5.30;;
24147;SDS011;12309;51.450;-2.624;2023-06-01T04:32:30;8.60;;;4.93;;
24147;SDS011;12309;51.450;-2.624;2023-06-01T04:34:56;8.27;;;4.57;;
24147;SDS011;12309;51.450;-2.624;2023-06-01T04:37:22;9.50;;;5.30;;
24147;SDS011;12309;51.450;-2.624;2023-06-01T04:39:47;14.73;;;5.23;;
24147;SDS011;12309;51.450;-2.624;2023-06-01T04:42:15;8.27;;;4.80;;
24147;SDS011;12309;51.450;-2.624;2023-06-01T04:44:42;10.63;;;5.20;;
24147;SDS011;12309;51.450;-2.624;2023-06-01T04:47:08;10.43;;;5.30;;
24147;SDS011;12309;51.450;-2.624;2023-06-01T04:49:33;9.50;;;5.43;;
24147;SDS011;12309;51.450;-2.624;2023-06-01T04:52:01;7.27;;;5.03;;
24147;SDS011;12309;51.450;-2.624;2023-06-01T04:54:27;11.73;;;6.50;;
24147;SDS011;12309;51.450;-2.624;2023-06-01T04:56:52;9.18;;;5.60;;
24147;SDS011;12309;51.450;-2.624;2023-06-01T04:59:18;11.57;;;6.00;;
24147;SDS011;12309;51.450;-2.624;2023-06-01T05:01:46;9.03;;;5.70;;
24147;SDS011;12309;51.450;-2.624;2023-06-01T05:04:11;10.93;;;5.00;;
24147;SDS011;12309;51.450;-2.624;2023-06-01T05:06:37;10.60;;;5.60;;
24147;SDS011;12309;51.450;-2.624;2023-06-01T05:09:03;9.23;;;6.07;;
24147;SDS011;12309;51.450;-2.624;2023-06-01T05:11:30;11.85;;;6.05;;
24147;SDS011;12309;51.450;-2.624;2023-06-01T05:13:55;9.52;;;5.80;;
24147;SDS011;12309;51.450;-2.624;2023-06-01T05:16:26;8.27;;;5.53;;
24147;SDS011;12309;51.450;-2.624;2023-06-01T05:18:52;10.53;;;5.37;;
24147;SDS011;12309;51.450;-2.624;2023-06-01T05:21:18;12.87;;;5.70;;
24147;SDS011;12309;51.450;-2.624;2023-06-01T05:23:44;11.70;;;5.83;;
24147;SDS011;12309;51.450;-2.624;2023-06-01T05:26:09;12.83;;;6.20;;
24147;SDS011;12309;51.450;-2.624;2023-06-01T05:28:35;11.90;;;6.30;;
24147;SDS011;12309;51.450;-2.624;2023-06-01T05:31:01;10.87;;;5.60;;
24147;SDS011;12309;51.450;-2.624;2023-06-01T05:33:27;12.50;;;5.73;;
24147;SDS011;12309;51.450;-2.624;2023-06-01T05:35:53;10.27;;;5.65;;
24147;SDS011;12309;51.450;-2.624;2023-06-01T05:38:18;9.63;;;5.40;;
24147;SDS011;12309;51.450;-2.624;2023-06-01T05:40:44;9.97;;;5.10;;
24147;SDS011;12309;51.450;-2.624;2023-06-01T05:43:10;8.17;;;5.00;;
24147;SDS011;12309;51.450;-2.624;2023-06-01T05:45:36;11.40;;;6.07;;
24147;SDS011;12309;51.450;-2.624;2023-06-01T05:48:02;10.00;;;5.33;;
24147;SDS011;12309;51.450;-2.624;2023-06-01T05:50:28;10.33;;;4.87;;
24147;SDS011;12309;51.450;-2.624;2023-06-01T05:52:53;8.50;;;4.80;;
24147;SDS011;12309;51.450;-2.624;2023-06-01T05:55:19;11.77;;;5.27;;
24147;SDS011;12309;51.450;-2.624;2023-06-01T05:57:45;9.23;;;5.27;;
24147;SDS011;12309;51.450;-2.624;2023-06-01T06:00:11;9.47;;;4.97;;
24147;SDS011;12309;51.450;-2.624;2023-06-01T06:02:38;14.82;;;5.57;;
24147;SDS011;12309;51.450;-2.624;2023-06-01T06:05:05;11.83;;;5.33;;
24147;SDS011;12309;51.450;-2.624;2023-06-01T06:07:31;8.23;;;5.03;;
24147;SDS011;12309;51.450;-2.624;2023-06-01T06:09:56;13.73;;;5.68;;
24147;SDS011;12309;51.450;-2.624;2023-06-01T06:12:22;11.40;;;5.30;;
24147;SDS011;12309;51.450;-2.624;2023-06-01T06:14:47;10.50;;;5.57;;
24147;SDS011;12309;51.450;-2.624;2023-06-01T06:17:16;8.93;;;5.25;;
24147;SDS011;12309;51.450;-2.624;2023-06-01T06:19:41;9.83;;;5.63;;
24147;SDS011;12309;51.450;-2.624;2023-06-01T06:22:09;11.07;;;5.40;;
24147;SDS011;12309;51.450;-2.624;2023-06-01T06:24:34;11.93;;;5.72;;
24147;SDS011;12309;51.450;-2.624;2023-06-01T06:27:00;9.73;;;5.57;;
24147;SDS011;12309;51.450;-2.624;2023-06-01T06:29:27;11.73;;;5.90;;
24147;SDS011;12309;51.450;-2.624;2023-06-01T06:31:52;10.57;;;6.00;;
24147;SDS011;12309;51.450;-2.624;2023-06-01T06:34:18;11.90;;;5.60;;
24147;SDS011;12309;51.450;-2.624;2023-06-01T06:36:44;9.93;;;5.47;;
24147;SDS011;12309;51.450;-2.624;2023-06-01T06:39:09;9.97;;;5.43;;
24147;SDS011;12309;51.450;-2.624;2023-06-01T06:41:35;10.77;;;6.07;;
24147;SDS011;12309;51.450;-2.624;2023-06-01T06:44:01;12.70;;;6.23;;
24147;SDS011;12309;51.450;-2.624;2023-06-01T06:46:27;10.33;;;5.30;;
24147;SDS011;12309;51.450;-2.624;2023-06-01T06:48:52;12.43;;;5.87;;
24147;SDS011;12309;51.450;-2.624;2023-06-01T06:51:19;13.33;;;6.03;;
24147;SDS011;12309;51.450;-2.624;2023-06-01T06:53:44;10.60;;;5.87;;
24147;SDS011;12309;51.450;-2.624;2023-06-01T06:56:10;10.67;;;6.40;;
24147;SDS011;12309;51.450;-2.624;2023-06-01T06:58:35;14.50;;;5.80;;
24147;SDS011;12309;51.450;-2.624;2023-06-01T07:01:01;13.70;;;5.83;;
24147;SDS011;12309;51.450;-2.624;2023-06-01T07:03:30;15.00;;;6.07;;
24147;SDS011;12309;51.450;-2.624;2023-06-01T07:05:56;14.55;;;5.35;;
24147;SDS011;12309;51.450;-2.624;2023-06-01T07:08:22;12.93;;;6.03;;
24147;SDS011;12309;51.450;-2.624;2023-06-01T07:10:47;13.95;;;5.45;;
24147;SDS011;12309;51.450;-2.624;2023-06-01T07:13:13;13.18;;;5.90;;
24147;SDS011;12309;51.450;-2.624;2023-06-01T07:15:39;13.63;;;6.20;;
24147;SDS011;12309;51.450;-2.624;2023-06-01T07:18:05;9.13;;;5.60;;
24147;SDS011;12309;51.450;-2.624;2023-06-01T07:20:31;13.20;;;6.20;;
24147;SDS011;12309;51.450;-2.624;2023-06-01T07:22:57;13.10;;;5.72;;
24147;SDS011;12309;51.450;-2.624;2023-06-01T07:25:23;11.68;;;5.95;;
24147;SDS011;12309;51.450;-2.624;2023-06-01T07:27:48;10.85;;;5.97;;
24147;SDS011;12309;51.450;-2.624;2023-06-01T07:30:15;10.93;;;6.35;;
24147;SDS011;12309;51.450;-2.624;2023-06-01T07:32:41;10.50;;;5.63;;
24147;SDS011;12309;51.450;-2.624;2023-06-01T07:35:07;11.90;;;5.47;;
24147;SDS011;12309;51.450;-2.624;2023-06-01T07:37:33;10.82;;;5.30;;
24147;SDS011;12309;51.450;-2.624;2023-06-01T07:39:59;12.52;;;5.63;;
24147;SDS011;12309;51.450;-2.624;2023-06-01T07:42:25;9.63;;;5.60;;
24147;SDS011;12309;51.450;-2.624;2023-06-01T07:44:50;9.38;;;5.38;;
24147;SDS011;12309;51.450;-2.624;2023-06-01T07:47:16;10.35;;;6.00;;
24147;SDS011;12309;51.450;-2.624;2023-06-01T07:49:42;11.68;;;5.63;;
24147;SDS011;12309;51.450;-2.624;2023-06-01T07:52:07;11.50;;;5.65;;
24147;SDS011;12309;51.450;-2.624;2023-06-01T07:54:34;12.73;;;5.60;;
24147;SDS011;12309;51.450;-2.624;2023-06-01T07:57:03;10.50;;;5.55;;
24147;SDS011;12309;51.450;-2.624;2023-06-01T07:59:29;7.78;;;5.25;;
24147;SDS011;12309;51.450;-2.624;2023-06-01T08:01:59;8.52;;;5.40;;
24147;SDS011;12309;51.450;-2.624;2023-06-01T08:04:25;10.52;;;5.57;;
24147;SDS011;12309;51.450;-2.624;2023-06-01T08:06:52;8.98;;;5.13;;
24147;SDS011;12309;51.450;-2.624;2023-06-01T08:09:19;8.20;;;4.90;;
24147;SDS011;12309;51.450;-2.624;2023-06-01T08:11:45;10.32;;;5.07;;
24147;SDS011;12309;51.450;-2.624;2023-06-01T08:14:11;8.20;;;5.32;;
24147;SDS011;12309;51.450;-2.624;2023-06-01T08:16:36;12.25;;;5.88;;
24147;SDS011;12309;51.450;-2.624;2023-06-01T08:19:02;8.38;;;5.07;;
24147;SDS011;12309;51.450;-2.624;2023-06-01T08:21:28;8.48;;;4.80;;
24147;SDS011;12309;51.450;-2.624;2023-06-01T08:23:54;17.08;;;6.05;;
24147;SDS011;12309;51.450;-2.624;2023-06-01T08:26:20;10.35;;;4.88;;
24147;SDS011;12309;51.450;-2.624;2023-06-01T08:28:46;12.57;;;5.10;;
24147;SDS011;12309;51.450;-2.624;2023-06-01T08:31:21;10.27;;;5.18;;
24147;SDS011;12309;51.450;-2.624;2023-06-01T08:33:48;9.38;;;5.15;;
24147;SDS011;12309;51.450;-2.624;2023-06-01T08:36:15;10.15;;;4.88;;
24147;SDS011;12309;51.450;-2.624;2023-06-01T08:38:41;13.30;;;5.50;;
24147;SDS011;12309;51.450;-2.624;2023-06-01T08:41:17;8.45;;;5.03;;
24147;SDS011;12309;51.450;-2.624;2023-06-01T08:43:55;13.07;;;5.45;;
24147;SDS011;12309;51.450;-2.624;2023-06-01T08:46:24;14.57;;;4.70;;
24147;SDS011;12309;51.450;-2.624;2023-06-01T08:48:52;9.95;;;5.05;;
24147;SDS011;12309;51.450;-2.624;2023-06-01T08:51:20;9.93;;;4.90;;
24147;SDS011;12309;51.450;-2.624;2023-06-01T08:53:47;9.63;;;4.63;;
24147;SDS011;12309;51.450;-2.624;2023-06-01T08:56:15;9.45;;;5.30;;
24147;SDS011;12309;51.450;-2.624;2023-06-01T08:58:41;9.00;;;4.85;;
24147;SDS011;12309;51.450;-2.624;2023-06-01T09:01:09;7.43;;;4.38;;
24147;SDS011;12309;51.450;-2.624;2023-06-01T09:03:43;7.68;;;4.55;;
24147;SDS011;12309;51.450;-2.624;2023-06-01T09:06:09;7.88;;;4.95;;
24147;SDS011;12309;51.450;-2.624;2023-06-01T09:08:36;7.57;;;4.32;;
24147;SDS011;12309;51.450;-2.624;2023-06-01T09:11:02;10.45;;;4.43;;
24147;SDS011;12309;51.450;-2.624;2023-06-01T09:13:31;6.28;;;4.03;;
24147;SDS011;12309;51.450;-2.624;2023-06-01T09:16:04;8.73;;;4.20;;
24147;SDS011;12309;51.450;-2.624;2023-06-01T09:18:30;10.30;;;5.00;;
24147;SDS011;12309;51.450;-2.624;2023-06-01T09:21:11;14.00;;;9.65;;
24147;SDS011;12309;51.450;-2.624;2023-06-01T09:23:38;34.35;;;24.33;;
24147;SDS011;12309;51.450;-2.624;2023-06-01T09:26:04;16.95;;;11.90;;
24147;SDS011;12309;51.450;-2.624;2023-06-01T09:28:51;26.02;;;14.93;;
24147;SDS011;12309;51.450;-2.624;2023-06-01T09:34:12;19.90;;;10.27;;
24147;SDS011;12309;51.450;-2.624;2023-06-01T09:36:52;12.32;;;6.65;;
24147;SDS011;12309;51.450;-2.624;2023-06-01T09:39:20;11.68;;;6.57;;
24147;SDS011;12309;51.450;-2.624;2023-06-01T09:44:37;33.70;;;21.15;;
24147;SDS011;12309;51.450;-2.624;2023-06-01T09:47:09;26.50;;;14.70;;
24147;SDS011;12309;51.450;-2.624;2023-06-01T09:49:41;16.80;;;10.40;;
24147;SDS011;12309;51.450;-2.624;2023-06-01T09:52:09;15.80;;;8.52;;
24147;SDS011;12309;51.450;-2.624;2023-06-01T09:54:44;11.50;;;5.07;;
24147;SDS011;12309;51.450;-2.624;2023-06-01T09:57:19;12.63;;;9.10;;
24147;SDS011;12309;51.450;-2.624;2023-06-01T09:59:49;10.57;;;7.53;;
24147;SDS011;12309;51.450;-2.624;2023-06-01T10:02:16;7.95;;;4.03;;
24147;SDS011;12309;51.450;-2.624;2023-06-01T10:04:53;11.73;;;4.75;;
24147;SDS011;12309;51.450;-2.624;2023-06-01T10:07:23;13.77;;;7.68;;
24147;SDS011;12309;51.450;-2.624;2023-06-01T10:09:56;9.95;;;5.78;;
24147;SDS011;12309;51.450;-2.624;2023-06-01T10:12:27;17.92;;;5.72;;
24147;SDS011;12309;51.450;-2.624;2023-06-01T10:14:53;8.63;;;4.03;;
24147;SDS011;12309;51.450;-2.624;2023-06-01T10:17:20;14.60;;;8.13;;
24147;SDS011;12309;51.450;-2.624;2023-06-01T10:19:47;12.35;;;6.72;;
24147;SDS011;12309;51.450;-2.624;2023-06-01T10:22:13;13.55;;;7.38;;
24147;SDS011;12309;51.450;-2.624;2023-06-01T10:24:39;7.35;;;4.93;;
24147;SDS011;12309;51.450;-2.624;2023-06-01T10:29:35;9.23;;;6.22;;
24147;SDS011;12309;51.450;-2.624;2023-06-01T10:32:01;8.15;;;3.63;;
24147;SDS011;12309;51.450;-2.624;2023-06-01T10:34:41;8.27;;;4.07;;
24147;SDS011;12309;51.450;-2.624;2023-06-01T10:37:10;7.60;;;4.05;;
24147;SDS011;12309;51.450;-2.624;2023-06-01T10:39:35;11.80;;;3.67;;
24147;SDS011;12309;51.450;-2.624;2023-06-01T10:54:54;6.95;;;3.83;;
24147;SDS011;12309;51.450;-2.624;2023-06-01T10:57:38;7.60;;;3.63;;
24147;SDS011;12309;51.450;-2.624;2023-06-01T11:00:25;6.03;;;3.80;;
24147;SDS011;12309;51.450;-2.624;2023-06-01T11:21:22;7.68;;;3.83;;
24147;SDS011;12309;51.450;-2.624;2023-06-01T11:23:49;7.55;;;4.18;;
24147;SDS011;12309;51.450;-2.624;2023-06-01T11:26:20;6.82;;;4.63;;
24147;SDS011;12309;51.450;-2.624;2023-06-01T11:28:49;10.18;;;4.60;;
24147;SDS011;12309;51.450;-2.624;2023-06-01T11:31:16;12.70;;;5.22;;
24147;SDS011;12309;51.450;-2.624;2023-06-01T11:33:50;10.38;;;5.38;;
24147;SDS011;12309;51.450;-2.624;2023-06-01T11:36:23;8.05;;;5.20;;
24147;SDS011;12309;51.450;-2.624;2023-06-01T11:38:50;9.15;;;4.55;;
24147;SDS011;12309;51.450;-2.624;2023-06-01T11:41:16;10.35;;;4.60;;
24147;SDS011;12309;51.450;-2.624;2023-06-01T11:43:52;10.30;;;5.38;;
24147;SDS011;12309;51.450;-2.624;2023-06-01T11:46:22;9.15;;;4.43;;
24147;SDS011;12309;51.450;-2.624;2023-06-01T11:51:32;12.65;;;5.82;;
24147;SDS011;12309;51.450;-2.624;2023-06-01T11:54:01;6.53;;;4.68;;
24147;SDS011;12309;51.450;-2.624;2023-06-01T11:56:28;10.18;;;6.43;;
24147;SDS011;12309;51.450;-2.624;2023-06-01T11:58:59;17.30;;;8.23;;
24147;SDS011;12309;51.450;-2.624;2023-06-01T12:01:26;11.57;;;5.60;;
24147;SDS011;12309;51.450;-2.624;2023-06-01T12:03:52;11.80;;;5.53;;
24147;SDS011;12309;51.450;-2.624;2023-06-01T12:06:23;7.82;;;4.88;;
24147;SDS011;12309;51.450;-2.624;2023-06-01T12:08:53;11.77;;;4.78;;
24147;SDS011;12309;51.450;-2.624;2023-06-01T12:11:21;8.65;;;5.30;;
24147;SDS011;12309;51.450;-2.624;2023-06-01T12:13:51;8.00;;;4.57;;
24147;SDS011;12309;51.450;-2.624;2023-06-01T12:16:18;11.07;;;5.50;;
24147;SDS011;12309;51.450;-2.624;2023-06-01T12:18:44;11.02;;;6.45;;
24147;SDS011;12309;51.450;-2.624;2023-06-01T12:21:13;8.00;;;5.53;;
24147;SDS011;12309;51.450;-2.624;2023-06-01T12:23:40;8.35;;;5.38;;
24147;SDS011;12309;51.450;-2.624;2023-06-01T12:26:06;9.93;;;5.00;;
24147;SDS011;12309;51.450;-2.624;2023-06-01T12:28:52;8.98;;;5.20;;
24147;SDS011;12309;51.450;-2.624;2023-06-01T12:31:20;8.98;;;4.95;;
24147;SDS011;12309;51.450;-2.624;2023-06-01T12:33:46;8.23;;;4.70;;
24147;SDS011;12309;51.450;-2.624;2023-06-01T12:38:57;10.43;;;5.13;;
24147;SDS011;12309;51.450;-2.624;2023-06-01T12:41:24;11.45;;;5.45;;
24147;SDS011;12309;51.450;-2.624;2023-06-01T12:43:51;10.80;;;5.75;;
24147;SDS011;12309;51.450;-2.624;2023-06-01T12:46:26;10.07;;;5.07;;
24147;SDS011;12309;51.450;-2.624;2023-06-01T12:48:54;9.23;;;4.65;;
24147;SDS011;12309;51.450;-2.624;2023-06-01T12:51:35;13.35;;;5.07;;
24147;SDS011;12309;51.450;-2.624;2023-06-01T12:54:01;8.60;;;4.70;;
24147;SDS011;12309;51.450;-2.624;2023-06-01T12:56:27;10.43;;;5.22;;
24147;SDS011;12309;51.450;-2.624;2023-06-01T12:58:53;10.18;;;5.22;;
24147;SDS011;12309;51.450;-2.624;2023-06-01T13:01:19;8.73;;;5.05;;
24147;SDS011;12309;51.450;-2.624;2023-06-01T13:03:45;9.35;;;4.63;;
24147;SDS011;12309;51.450;-2.624;2023-06-01T13:06:11;9.25;;;5.13;;
24147;SDS011;12309;51.450;-2.624;2023-06-01T13:08:37;12.15;;;5.40;;
24147;SDS011;12309;51.450;-2.624;2023-06-01T13:11:03;9.02;;;5.18;;
24147;SDS011;12309;51.450;-2.624;2023-06-01T13:13:29;9.43;;;5.00;;
24147;SDS011;12309;51.450;-2.624;2023-06-01T13:15:55;9.48;;;5.13;;
24147;SDS011;12309;51.450;-2.624;2023-06-01T13:18:20;8.35;;;4.93;;
24147;SDS011;12309;51.450;-2.624;2023-06-01T13:20:46;11.48;;;4.95;;
24147;SDS011;12309;51.450;-2.624;2023-06-01T13:23:12;10.75;;;4.43;;
24147;SDS011;12309;51.450;-2.624;2023-06-01T13:25:39;6.20;;;5.00;;
24147;SDS011;12309;51.450;-2.624;2023-06-01T13:28:05;9.27;;;5.03;;
24147;SDS011;12309;51.450;-2.624;2023-06-01T13:30:32;8.95;;;4.70;;
24147;SDS011;12309;51.450;-2.624;2023-06-01T13:32:58;9.60;;;4.93;;
24147;SDS011;12309;51.450;-2.624;2023-06-01T13:35:24;9.10;;;5.20;;
24147;SDS011;12309;51.450;-2.624;2023-06-01T13:37:50;9.90;;;4.97;;
24147;SDS011;12309;51.450;-2.624;2023-06-01T13:40:16;7.55;;;4.95;;
24147;SDS011;12309;51.450;-2.624;2023-06-01T13:42:49;8.40;;;4.70;;
24147;SDS011;12309;51.450;-2.624;2023-06-01T13:45:16;9.30;;;4.68;;
24147;SDS011;12309;51.450;-2.624;2023-06-01T13:47:45;7.30;;;4.72;;
24147;SDS011;12309;51.450;-2.624;2023-06-01T13:50:11;6.60;;;4.75;;
24147;SDS011;12309;51.450;-2.624;2023-06-01T13:52:38;6.97;;;4.85;;
24147;SDS011;12309;51.450;-2.624;2023-06-01T13:55:05;10.63;;;5.05;;
24147;SDS011;12309;51.450;-2.624;2023-06-01T13:57:31;8.50;;;5.07;;
24147;SDS011;12309;51.450;-2.624;2023-06-01T13:59:57;7.32;;;4.60;;
24147;SDS011;12309;51.450;-2.624;2023-06-01T14:02:23;8.23;;;5.15;;
24147;SDS011;12309;51.450;-2.624;2023-06-01T14:04:49;7.95;;;4.70;;
24147;SDS011;12309;51.450;-2.624;2023-06-01T14:07:14;8.38;;;4.93;;
24147;SDS011;12309;51.450;-2.624;2023-06-01T14:09:41;6.60;;;4.22;;
24147;SDS011;12309;51.450;-2.624;2023-06-01T14:12:07;5.90;;;4.45;;
24147;SDS011;12309;51.450;-2.624;2023-06-01T14:14:33;8.52;;;5.07;;
24147;SDS011;12309;51.450;-2.624;2023-06-01T14:16:58;7.05;;;4.80;;
24147;SDS011;12309;51.450;-2.624;2023-06-01T14:19:24;9.45;;;5.35;;
24147;SDS011;12309;51.450;-2.624;2023-06-01T14:21:51;6.50;;;5.15;;
24147;SDS011;12309;51.450;-2.624;2023-06-01T14:24:17;11.18;;;5.55;;
24147;SDS011;12309;51.450;-2.624;2023-06-01T14:26:43;11.23;;;5.53;;
24147;SDS011;12309;51.450;-2.624;2023-06-01T14:29:09;41.50;;;7.47;;
24147;SDS011;12309;51.450;-2.624;2023-06-01T14:31:35;7.30;;;5.13;;
24147;SDS011;12309;51.450;-2.624;2023-06-01T14:34:00;10.10;;;5.40;;
24147;SDS011;12309;51.450;-2.624;2023-06-01T14:36:26;11.00;;;5.65;;
24147;SDS011;12309;51.450;-2.624;2023-06-01T14:38:51;12.60;;;5.63;;
24147;SDS011;12309;51.450;-2.624;2023-06-01T14:41:17;12.55;;;5.40;;
24147;SDS011;12309;51.450;-2.624;2023-06-01T14:43:43;8.27;;;5.10;;
24147;SDS011;12309;51.450;-2.624;2023-06-01T14:46:08;7.97;;;5.40;;
24147;SDS011;12309;51.450;-2.624;2023-06-01T14:48:34;10.68;;;5.40;;
24147;SDS011;12309;51.450;-2.624;2023-06-01T14:50:59;8.80;;;5.43;;
24147;SDS011;12309;51.450;-2.624;2023-06-01T14:53:25;8.57;;;5.32;;
24147;SDS011;12309;51.450;-2.624;2023-06-01T14:55:50;8.82;;;5.15;;
24147;SDS011;12309;51.450;-2.624;2023-06-01T14:58:16;10.55;;;5.65;;
24147;SDS011;12309;51.450;-2.624;2023-06-01T15:00:42;9.82;;;5.55;;
24147;SDS011;12309;51.450;-2.624;2023-06-01T15:03:07;8.35;;;5.28;;
24147;SDS011;12309;51.450;-2.624;2023-06-01T15:05:33;7.18;;;5.20;;
24147;SDS011;12309;51.450;-2.624;2023-06-01T15:07:59;9.02;;;4.93;;
24147;SDS011;12309;51.450;-2.624;2023-06-01T15:10:25;11.10;;;5.47;;
24147;SDS011;12309;51.450;-2.624;2023-06-01T15:12:51;11.90;;;5.75;;
24147;SDS011;12309;51.450;-2.624;2023-06-01T15:15:17;9.55;;;6.07;;
24147;SDS011;12309;51.450;-2.624;2023-06-01T15:17:43;11.32;;;5.07;;
24147;SDS011;12309;51.450;-2.624;2023-06-01T15:20:09;11.30;;;5.75;;
24147;SDS011;12309;51.450;-2.624;2023-06-01T15:22:35;10.95;;;5.82;;
24147;SDS011;12309;51.450;-2.624;2023-06-01T15:25:01;11.65;;;5.82;;
24147;SDS011;12309;51.450;-2.624;2023-06-01T15:27:27;11.15;;;6.05;;
24147;SDS011;12309;51.450;-2.624;2023-06-01T15:29:53;11.63;;;5.53;;